sensor_id;sensor_type;location;lat;lon;timestamp;pressure;altitude;pressure_sealevel;temperature;humidity
54144;BME280;40050;47.324;18.792;2022-08-01T00:00:56;1001.93;;;18.36;60.48
54144;BME280;40050;47.324;18.792;2022-08-01T00:02:57;1001.92;;;18.34;60.68
54144;BME280;40050;47.324;18.792;2022-08-01T00:04:58;1001.95;;;18.33;60.84
54144;BME280;40050;47.324;18.792;2022-08-01T00:06:59;1001.96;;;18.29;61.01
54144;BME280;40050;47.324;18.792;2022-08-01T00:09:00;1001.97;;;18.26;61.16
54144;BME280;40050;47.324;18.792;2022-08-01T00:11:01;1001.92;;;18.23;61.26
54144;BME280;40050;47.324;18.792;2022-08-01T00:13:02;1001.88;;;18.18;61.25
54144;BME280;40050;47.324;18.792;2022-08-01T00:15:03;1001.87;;;18.17;61.29
54144;BME280;40050;47.324;18.792;2022-08-01T00:17:04;1001.86;;;18.15;61.32
54144;BME280;40050;47.324;18.792;2022-08-01T00:19:06;1001.88;;;18.15;61.42
54144;BME280;40050;47.324;18.792;2022-08-01T00:21:06;1001.91;;;18.14;61.50
54144;BME280;40050;47.324;18.792;2022-08-01T00:23:08;1001.92;;;18.12;61.50
54144;BME280;40050;47.324;18.792;2022-08-01T00:25:09;1001.88;;;18.06;61.67
54144;BME280;40050;47.324;18.792;2022-08-01T00:27:10;1001.92;;;18.09;61.73
54144;BME280;40050;47.324;18.792;2022-08-01T00:29:11;1001.90;;;18.08;61.65
54144;BME280;40050;47.324;18.792;2022-08-01T00:31:12;1001.85;;;18.07;61.79
54144;BME280;40050;47.324;18.792;2022-08-01T00:33:13;1001.85;;;18.10;61.84
54144;BME280;40050;47.324;18.792;2022-08-01T00:35:14;1001.82;;;18.08;61.83
54144;BME280;40050;47.324;18.792;2022-08-01T00:37:15;1001.85;;;18.06;61.85
54144;BME280;40050;47.324;18.792;2022-08-01T00:39:16;1001.80;;;18.00;61.90
54144;BME280;40050;47.324;18.792;2022-08-01T00:41:17;1001.80;;;17.97;61.96
54144;BME280;40050;47.324;18.792;2022-08-01T00:43:18;1001.75;;;17.92;61.75
54144;BME280;40050;47.324;18.792;2022-08-01T00:45:19;1001.71;;;17.87;61.62
54144;BME280;40050;47.324;18.792;2022-08-01T00:47:20;1001.74;;;17.85;61.63
54144;BME280;40050;47.324;18.792;2022-08-01T00:49:21;1001.79;;;17.85;61.76
54144;BME280;40050;47.324;18.792;2022-08-01T00:51:22;1001.82;;;17.82;61.90
54144;BME280;40050;47.324;18.792;2022-08-01T00:53:24;1001.79;;;17.77;62.09
54144;BME280;40050;47.324;18.792;2022-08-01T00:55:26;1001.79;;;17.71;62.17
54144;BME280;40050;47.324;18.792;2022-08-01T00:57:27;1001.82;;;17.69;62.35
54144;BME280;40050;47.324;18.792;2022-08-01T00:59:28;1001.83;;;17.68;62.40
54144;BME280;40050;47.324;18.792;2022-08-01T01:01:30;1001.81;;;17.67;62.42
54144;BME280;40050;47.324;18.792;2022-08-01T01:03:31;1001.84;;;17.65;62.58
54144;BME280;40050;47.324;18.792;2022-08-01T01:05:33;1001.85;;;17.62;62.78
54144;BME280;40050;47.324;18.792;2022-08-01T01:10:03;1001.85;;;17.58;63.04
54144;BME280;40050;47.324;18.792;2022-08-01T01:15:04;1001.82;;;17.58;63.18
54144;BME280;40050;47.324;18.792;2022-08-01T01:16:38;1001.82;;;17.52;63.34
54144;BME280;40050;47.324;18.792;2022-08-01T01:18:43;1001.84;;;17.52;63.45
54144;BME280;40050;47.324;18.792;2022-08-01T01:20:48;1001.77;;;17.53;63.44
54144;BME280;40050;47.324;18.792;2022-08-01T01:27:36;1001.80;;;17.50;63.33
54144;BME280;40050;47.324;18.792;2022-08-01T01:29:41;1001.82;;;17.51;63.27
54144;BME280;40050;47.324;18.792;2022-08-01T01:31:48;1001.77;;;17.49;63.19
54144;BME280;40050;47.324;18.792;2022-08-01T01:33:50;1001.75;;;17.51;62.96
54144;BME280;40050;47.324;18.792;2022-08-01T01:35:53;1001.79;;;17.50;62.88
54144;BME280;40050;47.324;18.792;2022-08-01T01:38:00;1001.70;;;17.42;62.87
54144;BME280;40050;47.324;18.792;2022-08-01T01:40:02;1001.71;;;17.41;62.90
54144;BME280;40050;47.324;18.792;2022-08-01T01:42:04;1001.69;;;17.36;62.90
54144;BME280;40050;47.324;18.792;2022-08-01T01:44:06;1001.68;;;17.35;62.99
54144;BME280;40050;47.324;18.792;2022-08-01T01:46:10;1001.66;;;17.30;63.13
54144;BME280;40050;47.324;18.792;2022-08-01T01:48:16;1001.71;;;17.31;63.18
54144;BME280;40050;47.324;18.792;2022-08-01T01:50:20;1001.69;;;17.28;63.24
54144;BME280;40050;47.324;18.792;2022-08-01T01:52:21;1001.72;;;17.31;63.40
54144;BME280;40050;47.324;18.792;2022-08-01T01:54:25;1001.68;;;17.29;63.42
54144;BME280;40050;47.324;18.792;2022-08-01T01:56:28;1001.71;;;17.34;63.28
54144;BME280;40050;47.324;18.792;2022-08-01T01:58:31;1001.71;;;17.33;63.24
54144;BME280;40050;47.324;18.792;2022-08-01T02:00:34;1001.72;;;17.30;63.23
54144;BME280;40050;47.324;18.792;2022-08-01T02:02:36;1001.67;;;17.28;63.34
54144;BME280;40050;47.324;18.792;2022-08-01T02:04:38;1001.65;;;17.24;63.49
54144;BME280;40050;47.324;18.792;2022-08-01T02:06:40;1001.66;;;17.24;63.81
54144;BME280;40050;47.324;18.792;2022-08-01T02:08:42;1001.63;;;17.20;64.04
54144;BME280;40050;47.324;18.792;2022-08-01T02:10:44;1001.62;;;17.15;64.32
54144;BME280;40050;47.324;18.792;2022-08-01T02:12:46;1001.63;;;17.12;64.42
54144;BME280;40050;47.324;18.792;2022-08-01T02:14:50;1001.56;;;17.09;64.43
54144;BME280;40050;47.324;18.792;2022-08-01T02:16:51;1001.58;;;17.12;64.27
54144;BME280;40050;47.324;18.792;2022-08-01T02:18:53;1001.58;;;17.12;64.28
54144;BME280;40050;47.324;18.792;2022-08-01T02:20:54;1001.55;;;17.10;64.29
54144;BME280;40050;47.324;18.792;2022-08-01T02:22:57;1001.52;;;17.09;64.24
54144;BME280;40050;47.324;18.792;2022-08-01T02:25:02;1001.53;;;17.08;64.21
54144;BME280;40050;47.324;18.792;2022-08-01T02:27:14;1001.52;;;17.11;64.15
54144;BME280;40050;47.324;18.792;2022-08-01T02:29:24;1001.50;;;17.08;64.11
54144;BME280;40050;47.324;18.792;2022-08-01T02:31:27;1001.54;;;17.08;64.11
54144;BME280;40050;47.324;18.792;2022-08-01T02:34:05;1001.60;;;17.05;64.11
54144;BME280;40050;47.324;18.792;2022-08-01T02:35:51;1001.52;;;17.01;64.23
54144;BME280;40050;47.324;18.792;2022-08-01T02:37:53;1001.58;;;17.00;64.29
54144;BME280;40050;47.324;18.792;2022-08-01T02:39:55;1001.53;;;17.00;64.23
54144;BME280;40050;47.324;18.792;2022-08-01T02:41:57;1001.51;;;17.00;64.28
54144;BME280;40050;47.324;18.792;2022-08-01T02:44:00;1001.51;;;17.00;64.34
54144;BME280;40050;47.324;18.792;2022-08-01T02:46:02;1001.53;;;16.95;64.47
54144;BME280;40050;47.324;18.792;2022-08-01T02:48:14;1001.51;;;16.97;64.49
54144;BME280;40050;47.324;18.792;2022-08-01T02:50:16;1001.50;;;16.93;64.61
54144;BME280;40050;47.324;18.792;2022-08-01T02:52:19;1001.50;;;16.93;64.68
54144;BME280;40050;47.324;18.792;2022-08-01T02:54:20;1001.49;;;16.95;64.66
54144;BME280;40050;47.324;18.792;2022-08-01T02:56:23;1001.44;;;16.94;64.56
54144;BME280;40050;47.324;18.792;2022-08-01T02:58:24;1001.50;;;16.89;64.61
54144;BME280;40050;47.324;18.792;2022-08-01T03:00:27;1001.50;;;16.90;64.66
54144;BME280;40050;47.324;18.792;2022-08-01T03:02:28;1001.46;;;16.89;64.65
54144;BME280;40050;47.324;18.792;2022-08-01T03:04:31;1001.48;;;16.89;64.54
54144;BME280;40050;47.324;18.792;2022-08-01T03:06:33;1001.49;;;16.89;64.39
54144;BME280;40050;47.324;18.792;2022-08-01T03:08:34;1001.46;;;16.88;64.46
54144;BME280;40050;47.324;18.792;2022-08-01T03:10:37;1001.53;;;16.88;64.57
54144;BME280;40050;47.324;18.792;2022-08-01T03:12:38;1001.53;;;16.88;64.63
54144;BME280;40050;47.324;18.792;2022-08-01T03:14:40;1001.54;;;16.88;64.80
54144;BME280;40050;47.324;18.792;2022-08-01T03:16:43;1001.50;;;16.85;64.81
54144;BME280;40050;47.324;18.792;2022-08-01T03:18:45;1001.50;;;16.86;64.88
54144;BME280;40050;47.324;18.792;2022-08-01T03:20:47;1001.49;;;16.82;65.01
54144;BME280;40050;47.324;18.792;2022-08-01T03:22:49;1001.50;;;16.82;64.97
54144;BME280;40050;47.324;18.792;2022-08-01T03:24:52;1001.45;;;16.81;64.91
54144;BME280;40050;47.324;18.792;2022-08-01T03:26:53;1001.46;;;16.83;64.83
54144;BME280;40050;47.324;18.792;2022-08-01T03:28:59;1001.46;;;16.77;64.86
54144;BME280;40050;47.324;18.792;2022-08-01T03:31:02;1001.43;;;16.76;64.93
54144;BME280;40050;47.324;18.792;2022-08-01T03:33:03;1001.46;;;16.73;65.04
54144;BME280;40050;47.324;18.792;2022-08-01T03:35:04;1001.44;;;16.71;65.03
54144;BME280;40050;47.324;18.792;2022-08-01T03:37:06;1001.47;;;16.70;65.02
54144;BME280;40050;47.324;18.792;2022-08-01T03:39:09;1001.43;;;16.65;65.09
54144;BME280;40050;47.324;18.792;2022-08-01T03:41:13;1001.46;;;16.68;65.06
54144;BME280;40050;47.324;18.792;2022-08-01T03:43:18;1001.48;;;16.70;64.95
54144;BME280;40050;47.324;18.792;2022-08-01T03:45:21;1001.47;;;16.73;64.84
54144;BME280;40050;47.324;18.792;2022-08-01T03:47:24;1001.45;;;16.73;64.89
54144;BME280;40050;47.324;18.792;2022-08-01T03:49:29;1001.49;;;16.70;64.96
54144;BME280;40050;47.324;18.792;2022-08-01T03:51:30;1001.51;;;16.70;65.09
54144;BME280;40050;47.324;18.792;2022-08-01T03:53:32;1001.56;;;16.66;65.17
54144;BME280;40050;47.324;18.792;2022-08-01T03:55:34;1001.58;;;16.65;65.23
54144;BME280;40050;47.324;18.792;2022-08-01T03:57:36;1001.55;;;16.67;65.24
54144;BME280;40050;47.324;18.792;2022-08-01T03:59:38;1001.51;;;16.69;65.31
54144;BME280;40050;47.324;18.792;2022-08-01T04:01:39;1001.56;;;16.71;65.31
54144;BME280;40050;47.324;18.792;2022-08-01T04:03:40;1001.54;;;16.72;65.33
54144;BME280;40050;47.324;18.792;2022-08-01T04:05:42;1001.58;;;16.69;65.49
54144;BME280;40050;47.324;18.792;2022-08-01T04:07:49;1001.59;;;16.72;65.71
54144;BME280;40050;47.324;18.792;2022-08-01T04:09:51;1001.55;;;16.71;65.98
54144;BME280;40050;47.324;18.792;2022-08-01T04:11:52;1001.54;;;16.71;66.25
54144;BME280;40050;47.324;18.792;2022-08-01T04:13:53;1001.57;;;16.77;66.42
54144;BME280;40050;47.324;18.792;2022-08-01T04:15:54;1001.57;;;16.79;66.64
54144;BME280;40050;47.324;18.792;2022-08-01T04:17:55;1001.57;;;16.82;66.92
54144;BME280;40050;47.324;18.792;2022-08-01T04:19:56;1001.61;;;16.84;67.31
54144;BME280;40050;47.324;18.792;2022-08-01T04:21:57;1001.54;;;16.86;67.62
54144;BME280;40050;47.324;18.792;2022-08-01T04:23:59;1001.57;;;16.90;67.80
54144;BME280;40050;47.324;18.792;2022-08-01T04:26:01;1001.56;;;16.95;67.85
54144;BME280;40050;47.324;18.792;2022-08-01T04:28:03;1001.52;;;16.99;67.89
54144;BME280;40050;47.324;18.792;2022-08-01T04:30:06;1001.48;;;17.01;67.97
54144;BME280;40050;47.324;18.792;2022-08-01T04:32:08;1001.52;;;17.08;67.99
54144;BME280;40050;47.324;18.792;2022-08-01T04:34:11;1001.53;;;17.13;67.92
54144;BME280;40050;47.324;18.792;2022-08-01T04:36:13;1001.54;;;17.18;67.86
54144;BME280;40050;47.324;18.792;2022-08-01T04:38:17;1001.56;;;17.23;67.86
54144;BME280;40050;47.324;18.792;2022-08-01T04:40:20;1001.57;;;17.23;67.82
54144;BME280;40050;47.324;18.792;2022-08-01T04:42:21;1001.55;;;17.29;67.92
54144;BME280;40050;47.324;18.792;2022-08-01T04:44:23;1001.59;;;17.35;67.91
54144;BME280;40050;47.324;18.792;2022-08-01T04:46:24;1001.57;;;17.41;67.82
54144;BME280;40050;47.324;18.792;2022-08-01T04:48:26;1001.59;;;17.47;67.65
54144;BME280;40050;47.324;18.792;2022-08-01T04:50:27;1001.60;;;17.50;67.66
54144;BME280;40050;47.324;18.792;2022-08-01T04:52:35;1001.60;;;17.58;67.53
54144;BME280;40050;47.324;18.792;2022-08-01T04:54:36;1001.58;;;17.61;67.67
54144;BME280;40050;47.324;18.792;2022-08-01T04:56:37;1001.60;;;17.67;67.71
54144;BME280;40050;47.324;18.792;2022-08-01T04:58:39;1001.63;;;17.72;67.62
54144;BME280;40050;47.324;18.792;2022-08-01T05:00:40;1001.60;;;17.81;67.62
54144;BME280;40050;47.324;18.792;2022-08-01T05:02:41;1001.57;;;17.87;67.59
54144;BME280;40050;47.324;18.792;2022-08-01T05:04:42;1001.61;;;17.98;67.78
54144;BME280;40050;47.324;18.792;2022-08-01T05:06:43;1001.58;;;18.06;67.72
54144;BME280;40050;47.324;18.792;2022-08-01T05:08:44;1001.55;;;18.16;67.94
54144;BME280;40050;47.324;18.792;2022-08-01T05:10:45;1001.56;;;18.25;67.83
54144;BME280;40050;47.324;18.792;2022-08-01T05:12:46;1001.53;;;18.38;67.73
54144;BME280;40050;47.324;18.792;2022-08-01T05:14:47;1001.54;;;18.50;67.77
54144;BME280;40050;47.324;18.792;2022-08-01T05:16:48;1001.55;;;18.65;67.55
54144;BME280;40050;47.324;18.792;2022-08-01T05:18:49;1001.53;;;18.80;67.29
54144;BME280;40050;47.324;18.792;2022-08-01T05:20:50;1001.51;;;18.92;66.83
54144;BME280;40050;47.324;18.792;2022-08-01T05:22:51;1001.55;;;19.08;66.33
54144;BME280;40050;47.324;18.792;2022-08-01T05:24:52;1001.52;;;19.25;65.91
54144;BME280;40050;47.324;18.792;2022-08-01T05:26:54;1001.52;;;19.42;65.40
54144;BME280;40050;47.324;18.792;2022-08-01T05:28:55;1001.50;;;19.57;64.08
54144;BME280;40050;47.324;18.792;2022-08-01T05:30:56;1001.53;;;19.73;64.22
54144;BME280;40050;47.324;18.792;2022-08-01T05:32:57;1001.49;;;19.91;63.71
54144;BME280;40050;47.324;18.792;2022-08-01T05:34:58;1001.52;;;20.09;63.17
54144;BME280;40050;47.324;18.792;2022-08-01T05:36:59;1001.45;;;20.25;63.09
54144;BME280;40050;47.324;18.792;2022-08-01T05:39:00;1001.46;;;20.45;62.88
54144;BME280;40050;47.324;18.792;2022-08-01T05:41:01;1001.51;;;20.62;62.75
54144;BME280;40050;47.324;18.792;2022-08-01T05:43:02;1001.51;;;20.80;62.20
54144;BME280;40050;47.324;18.792;2022-08-01T05:45:03;1001.52;;;20.93;61.33
54144;BME280;40050;47.324;18.792;2022-08-01T05:47:04;1001.55;;;21.12;61.52
54144;BME280;40050;47.324;18.792;2022-08-01T05:49:05;1001.57;;;21.30;60.82
54144;BME280;40050;47.324;18.792;2022-08-01T05:51:06;1001.53;;;21.46;60.79
54144;BME280;40050;47.324;18.792;2022-08-01T05:53:07;1001.55;;;21.66;60.11
54144;BME280;40050;47.324;18.792;2022-08-01T05:55:08;1001.63;;;21.86;59.38
54144;BME280;40050;47.324;18.792;2022-08-01T05:57:09;1001.68;;;22.02;59.36
54144;BME280;40050;47.324;18.792;2022-08-01T05:59:11;1001.68;;;22.20;58.92
54144;BME280;40050;47.324;18.792;2022-08-01T06:01:12;1001.67;;;22.36;57.83
54144;BME280;40050;47.324;18.792;2022-08-01T06:03:13;1001.68;;;22.53;57.06
54144;BME280;40050;47.324;18.792;2022-08-01T06:05:15;1001.71;;;22.71;56.83
54144;BME280;40050;47.324;18.792;2022-08-01T06:07:16;1001.72;;;22.85;55.90
54144;BME280;40050;47.324;18.792;2022-08-01T06:09:17;1001.73;;;23.03;56.12
54144;BME280;40050;47.324;18.792;2022-08-01T06:11:18;1001.74;;;23.18;56.43
54144;BME280;40050;47.324;18.792;2022-08-01T06:13:19;1001.75;;;23.38;55.00
54144;BME280;40050;47.324;18.792;2022-08-01T06:15:20;1001.78;;;23.55;55.27
54144;BME280;40050;47.324;18.792;2022-08-01T06:17:21;1001.73;;;23.72;54.58
54144;BME280;40050;47.324;18.792;2022-08-01T06:19:23;1001.67;;;23.88;53.97
54144;BME280;40050;47.324;18.792;2022-08-01T06:21:23;1001.69;;;24.08;54.19
54144;BME280;40050;47.324;18.792;2022-08-01T06:23:24;1001.66;;;24.25;53.93
54144;BME280;40050;47.324;18.792;2022-08-01T06:25:25;1001.65;;;24.45;53.38
54144;BME280;40050;47.324;18.792;2022-08-01T06:27:26;1001.61;;;24.63;52.93
54144;BME280;40050;47.324;18.792;2022-08-01T06:29:29;1001.66;;;24.84;52.55
54144;BME280;40050;47.324;18.792;2022-08-01T06:31:30;1001.66;;;25.01;52.22
54144;BME280;40050;47.324;18.792;2022-08-01T06:33:31;1001.63;;;25.19;51.78
54144;BME280;40050;47.324;18.792;2022-08-01T06:35:33;1001.62;;;25.37;51.50
54144;BME280;40050;47.324;18.792;2022-08-01T06:37:33;1001.61;;;25.58;50.83
54144;BME280;40050;47.324;18.792;2022-08-01T06:39:34;1001.60;;;25.79;50.35
54144;BME280;40050;47.324;18.792;2022-08-01T06:41:35;1001.60;;;25.99;49.89
54144;BME280;40050;47.324;18.792;2022-08-01T06:43:36;1001.61;;;26.14;49.22
54144;BME280;40050;47.324;18.792;2022-08-01T06:45:40;1001.57;;;26.26;49.26
54144;BME280;40050;47.324;18.792;2022-08-01T06:47:42;1001.62;;;26.43;48.17
54144;BME280;40050;47.324;18.792;2022-08-01T06:49:43;1001.58;;;26.54;47.50
54144;BME280;40050;47.324;18.792;2022-08-01T06:51:44;1001.56;;;26.65;47.89
54144;BME280;40050;47.324;18.792;2022-08-01T06:53:45;1001.59;;;26.75;47.95
54144;BME280;40050;47.324;18.792;2022-08-01T06:55:46;1001.57;;;26.81;48.20
54144;BME280;40050;47.324;18.792;2022-08-01T06:57:48;1001.57;;;26.92;46.68
54144;BME280;40050;47.324;18.792;2022-08-01T06:59:49;1001.56;;;27.09;46.64
54144;BME280;40050;47.324;18.792;2022-08-01T07:01:50;1001.59;;;27.25;46.17
54144;BME280;40050;47.324;18.792;2022-08-01T07:03:51;1001.59;;;27.34;45.58
54144;BME280;40050;47.324;18.792;2022-08-01T07:05:52;1001.52;;;27.38;46.16
54144;BME280;40050;47.324;18.792;2022-08-01T07:07:53;1001.51;;;27.38;44.99
54144;BME280;40050;47.324;18.792;2022-08-01T07:09:54;1001.49;;;27.41;45.82
54144;BME280;40050;47.324;18.792;2022-08-01T07:11:55;1001.48;;;27.46;46.13
54144;BME280;40050;47.324;18.792;2022-08-01T07:13:56;1001.50;;;27.64;46.66
54144;BME280;40050;47.324;18.792;2022-08-01T07:15:58;1001.48;;;27.84;45.71
54144;BME280;40050;47.324;18.792;2022-08-01T07:17:59;1001.49;;;27.94;45.04
54144;BME280;40050;47.324;18.792;2022-08-01T07:20:01;1001.50;;;28.01;43.96
54144;BME280;40050;47.324;18.792;2022-08-01T07:22:01;1001.55;;;28.17;44.78
54144;BME280;40050;47.324;18.792;2022-08-01T07:24:03;1001.53;;;28.35;44.21
54144;BME280;40050;47.324;18.792;2022-08-01T07:26:04;1001.54;;;28.59;43.76
54144;BME280;40050;47.324;18.792;2022-08-01T07:28:05;1001.47;;;28.79;42.87
54144;BME280;40050;47.324;18.792;2022-08-01T07:30:06;1001.50;;;28.99;41.43
54144;BME280;40050;47.324;18.792;2022-08-01T07:32:07;1001.55;;;29.26;41.47
54144;BME280;40050;47.324;18.792;2022-08-01T07:34:08;1001.54;;;29.48;41.35
54144;BME280;40050;47.324;18.792;2022-08-01T07:36:09;1001.59;;;29.71;41.14
54144;BME280;40050;47.324;18.792;2022-08-01T07:38:10;1001.55;;;29.79;40.51
54144;BME280;40050;47.324;18.792;2022-08-01T07:40:12;1001.49;;;29.84;39.91
54144;BME280;40050;47.324;18.792;2022-08-01T07:42:13;1001.53;;;29.87;40.96
54144;BME280;40050;47.324;18.792;2022-08-01T07:44:14;1001.54;;;29.90;40.91
54144;BME280;40050;47.324;18.792;2022-08-01T07:46:15;1001.56;;;29.89;40.11
54144;BME280;40050;47.324;18.792;2022-08-01T07:48:17;1001.56;;;29.82;39.69
54144;BME280;40050;47.324;18.792;2022-08-01T07:50:18;1001.59;;;29.81;40.36
54144;BME280;40050;47.324;18.792;2022-08-01T07:52:19;1001.68;;;29.77;41.11
54144;BME280;40050;47.324;18.792;2022-08-01T07:54:20;1001.67;;;29.71;40.86
54144;BME280;40050;47.324;18.792;2022-08-01T07:56:21;1001.68;;;29.66;41.42
54144;BME280;40050;47.324;18.792;2022-08-01T07:58:22;1001.66;;;29.58;40.48
54144;BME280;40050;47.324;18.792;2022-08-01T08:00:23;1001.66;;;29.51;40.50
54144;BME280;40050;47.324;18.792;2022-08-01T08:02:25;1001.62;;;29.43;40.50
54144;BME280;40050;47.324;18.792;2022-08-01T08:04:26;1001.61;;;29.33;41.43
54144;BME280;40050;47.324;18.792;2022-08-01T08:06:27;1001.60;;;29.25;42.03
54144;BME280;40050;47.324;18.792;2022-08-01T08:08:28;1001.66;;;29.22;42.33
54144;BME280;40050;47.324;18.792;2022-08-01T08:10:29;1001.67;;;29.18;42.86
54144;BME280;40050;47.324;18.792;2022-08-01T08:12:31;1001.66;;;29.17;41.52
54144;BME280;40050;47.324;18.792;2022-08-01T08:14:32;1001.67;;;29.10;42.07
54144;BME280;40050;47.324;18.792;2022-08-01T08:16:33;1001.71;;;29.09;42.45
54144;BME280;40050;47.324;18.792;2022-08-01T08:18:35;1001.67;;;29.04;41.67
54144;BME280;40050;47.324;18.792;2022-08-01T08:20:36;1001.69;;;28.99;42.17
54144;BME280;40050;47.324;18.792;2022-08-01T08:22:37;1001.71;;;28.94;41.83
54144;BME280;40050;47.324;18.792;2022-08-01T08:24:38;1001.72;;;28.89;42.22
54144;BME280;40050;47.324;18.792;2022-08-01T08:26:39;1001.78;;;28.88;42.89
54144;BME280;40050;47.324;18.792;2022-08-01T08:28:40;1001.81;;;28.82;42.25
54144;BME280;40050;47.324;18.792;2022-08-01T08:30:41;1001.78;;;28.78;42.54
54144;BME280;40050;47.324;18.792;2022-08-01T08:32:42;1001.83;;;28.75;42.87
54144;BME280;40050;47.324;18.792;2022-08-01T08:34:44;1001.82;;;28.74;43.04
54144;BME280;40050;47.324;18.792;2022-08-01T08:36:45;1001.82;;;28.71;42.76
54144;BME280;40050;47.324;18.792;2022-08-01T08:38:46;1001.84;;;28.70;43.46
54144;BME280;40050;47.324;18.792;2022-08-01T08:40:47;1001.83;;;28.75;43.87
54144;BME280;40050;47.324;18.792;2022-08-01T08:42:49;1001.88;;;28.73;43.63
54144;BME280;40050;47.324;18.792;2022-08-01T08:44:51;1001.89;;;28.73;44.19
54144;BME280;40050;47.324;18.792;2022-08-01T08:46:52;1001.85;;;28.77;44.63
54144;BME280;40050;47.324;18.792;2022-08-01T08:48:53;1001.89;;;28.79;44.76
54144;BME280;40050;47.324;18.792;2022-08-01T08:50:55;1001.91;;;28.85;44.37
54144;BME280;40050;47.324;18.792;2022-08-01T08:52:56;1001.93;;;28.89;43.03
54144;BME280;40050;47.324;18.792;2022-08-01T08:55:00;1001.85;;;28.88;43.32
54144;BME280;40050;47.324;18.792;2022-08-01T08:57:02;1001.86;;;28.95;43.45
54144;BME280;40050;47.324;18.792;2022-08-01T08:59:03;1001.85;;;29.00;43.32
54144;BME280;40050;47.324;18.792;2022-08-01T09:01:05;1001.88;;;29.04;43.24
54144;BME280;40050;47.324;18.792;2022-08-01T09:03:06;1001.91;;;29.10;43.13
54144;BME280;40050;47.324;18.792;2022-08-01T09:05:07;1001.87;;;29.18;43.52
54144;BME280;40050;47.324;18.792;2022-08-01T09:07:09;1001.91;;;29.24;43.22
54144;BME280;40050;47.324;18.792;2022-08-01T09:09:10;1001.90;;;29.31;43.96
54144;BME280;40050;47.324;18.792;2022-08-01T09:11:11;1001.90;;;29.35;41.97
54144;BME280;40050;47.324;18.792;2022-08-01T09:13:13;1001.85;;;29.32;41.27
54144;BME280;40050;47.324;18.792;2022-08-01T09:15:14;1001.85;;;29.32;42.12
54144;BME280;40050;47.324;18.792;2022-08-01T09:17:15;1001.86;;;29.36;42.71
54144;BME280;40050;47.324;18.792;2022-08-01T09:19:18;1001.88;;;29.40;42.39
54144;BME280;40050;47.324;18.792;2022-08-01T09:21:20;1001.90;;;29.42;42.31
54144;BME280;40050;47.324;18.792;2022-08-01T09:23:37;1001.89;;;29.43;42.68
54144;BME280;40050;47.324;18.792;2022-08-01T09:25:51;1001.91;;;29.47;42.22
54144;BME280;40050;47.324;18.792;2022-08-01T09:28:01;1001.88;;;29.42;41.92
54144;BME280;40050;47.324;18.792;2022-08-01T09:30:12;1001.91;;;29.42;41.68
54144;BME280;40050;47.324;18.792;2022-08-01T09:32:13;1001.90;;;29.46;40.69
54144;BME280;40050;47.324;18.792;2022-08-01T09:34:15;1001.89;;;29.43;40.94
54144;BME280;40050;47.324;18.792;2022-08-01T09:36:17;1001.87;;;29.44;41.90
54144;BME280;40050;47.324;18.792;2022-08-01T09:38:19;1001.88;;;29.49;41.41
54144;BME280;40050;47.324;18.792;2022-08-01T09:40:20;1001.90;;;29.52;41.62
54144;BME280;40050;47.324;18.792;2022-08-01T09:42:25;1001.88;;;29.55;42.36
54144;BME280;40050;47.324;18.792;2022-08-01T09:44:39;1001.83;;;29.55;42.33
54144;BME280;40050;47.324;18.792;2022-08-01T09:46:51;1001.81;;;29.56;41.96
54144;BME280;40050;47.324;18.792;2022-08-01T09:48:59;1001.81;;;29.58;41.46
54144;BME280;40050;47.324;18.792;2022-08-01T09:51:00;1001.82;;;29.61;40.11
54144;BME280;40050;47.324;18.792;2022-08-01T09:53:01;1001.79;;;29.61;40.93
54144;BME280;40050;47.324;18.792;2022-08-01T09:55:04;1001.80;;;29.65;39.98
54144;BME280;40050;47.324;18.792;2022-08-01T09:57:12;1001.79;;;29.70;39.52
54144;BME280;40050;47.324;18.792;2022-08-01T09:59:13;1001.75;;;29.79;39.35
54144;BME280;40050;47.324;18.792;2022-08-01T10:01:14;1001.78;;;29.87;40.55
54144;BME280;40050;47.324;18.792;2022-08-01T10:03:19;1001.76;;;29.96;39.97
54144;BME280;40050;47.324;18.792;2022-08-01T10:05:31;1001.72;;;29.97;39.67
54144;BME280;40050;47.324;18.792;2022-08-01T10:07:32;1001.71;;;29.97;40.15
54144;BME280;40050;47.324;18.792;2022-08-01T10:09:35;1001.72;;;30.04;41.17
54144;BME280;40050;47.324;18.792;2022-08-01T10:11:36;1001.69;;;30.16;40.46
54144;BME280;40050;47.324;18.792;2022-08-01T10:13:38;1001.72;;;30.22;40.67
54144;BME280;40050;47.324;18.792;2022-08-01T10:15:39;1001.72;;;30.20;40.33
54144;BME280;40050;47.324;18.792;2022-08-01T10:17:41;1001.71;;;30.23;40.46
54144;BME280;40050;47.324;18.792;2022-08-01T10:19:47;1001.70;;;30.27;40.14
54144;BME280;40050;47.324;18.792;2022-08-01T10:21:52;1001.63;;;30.33;40.29
54144;BME280;40050;47.324;18.792;2022-08-01T10:23:54;1001.63;;;30.39;40.86
54144;BME280;40050;47.324;18.792;2022-08-01T10:25:56;1001.65;;;30.46;41.65
54144;BME280;40050;47.324;18.792;2022-08-01T10:27:59;1001.58;;;30.48;40.50
54144;BME280;40050;47.324;18.792;2022-08-01T10:30:03;1001.53;;;30.48;39.36
54144;BME280;40050;47.324;18.792;2022-08-01T10:32:05;1001.49;;;30.57;40.41
54144;BME280;40050;47.324;18.792;2022-08-01T10:34:06;1001.48;;;30.65;39.71
54144;BME280;40050;47.324;18.792;2022-08-01T10:36:07;1001.47;;;30.75;40.10
54144;BME280;40050;47.324;18.792;2022-08-01T10:38:09;1001.41;;;30.91;39.83
54144;BME280;40050;47.324;18.792;2022-08-01T10:40:10;1001.42;;;31.00;38.20
54144;BME280;40050;47.324;18.792;2022-08-01T10:42:11;1001.45;;;31.15;37.54
54144;BME280;40050;47.324;18.792;2022-08-01T10:44:13;1001.42;;;31.24;38.70
54144;BME280;40050;47.324;18.792;2022-08-01T10:46:14;1001.46;;;31.37;36.81
54144;BME280;40050;47.324;18.792;2022-08-01T10:48:18;1001.39;;;31.39;36.82
54144;BME280;40050;47.324;18.792;2022-08-01T10:50:41;1001.36;;;31.43;35.92
54144;BME280;40050;47.324;18.792;2022-08-01T10:52:33;1001.36;;;31.42;36.19
54144;BME280;40050;47.324;18.792;2022-08-01T10:54:40;1001.32;;;31.50;34.99
54144;BME280;40050;47.324;18.792;2022-08-01T10:56:51;1001.34;;;31.57;36.70